sensor_id;sensor_type;location;lat;lon;timestamp;P1;durP1;ratioP1;P2;durP2;ratioP2
37529;SDS011;23374;52.758;6.872;2023-06-22T00:00:16;23.73;;;14.83;;
37529;SDS011;23374;52.758;6.872;2023-06-22T00:02:37;24.13;;;15.50;;
37529;SDS011;23374;52.758;6.872;2023-06-22T00:04:58;27.47;;;14.20;;
37529;SDS011;23374;52.758;6.872;2023-06-22T00:07:18;24.27;;;15.53;;
37529;SDS011;23374;52.758;6.872;2023-06-22T00:09:39;23.53;;;13.93;;
37529;SDS011;23374;52.758;6.872;2023-06-22T00:11:59;27.23;;;13.97;;
37529;SDS011;23374;52.758;6.872;2023-06-22T00:14:20;24.63;;;13.80;;
37529;SDS011;23374;52.758;6.872;2023-06-22T00:16:40;21.93;;;13.97;;
37529;SDS011;23374;52.758;6.872;2023-06-22T00:19:02;23.83;;;14.70;;
37529;SDS011;23374;52.758;6.872;2023-06-22T00:21:22;23.90;;;14.83;;
37529;SDS011;23374;52.758;6.872;2023-06-22T00:23:43;24.47;;;15.27;;
37529;SDS011;23374;52.758;6.872;2023-06-22T00:26:03;25.07;;;14.43;;
37529;SDS011;23374;52.758;6.872;2023-06-22T00:28:23;23.00;;;14.60;;
37529;SDS011;23374;52.758;6.872;2023-06-22T00:30:44;19.90;;;13.57;;
37529;SDS011;23374;52.758;6.872;2023-06-22T00:33:05;20.37;;;12.17;;
37529;SDS011;23374;52.758;6.872;2023-06-22T00:35:27;23.27;;;13.73;;
37529;SDS011;23374;52.758;6.872;2023-06-22T00:37:51;31.37;;;14.40;;
37529;SDS011;23374;52.758;6.872;2023-06-22T00:40:19;21.13;;;13.27;;
37529;SDS011;23374;52.758;6.872;2023-06-22T00:42:41;21.37;;;12.27;;
37529;SDS011;23374;52.758;6.872;2023-06-22T00:45:01;21.00;;;13.17;;
37529;SDS011;23374;52.758;6.872;2023-06-22T00:47:22;18.90;;;12.53;;
37529;SDS011;23374;52.758;6.872;2023-06-22T00:49:44;21.40;;;13.10;;
37529;SDS011;23374;52.758;6.872;2023-06-22T00:52:07;18.70;;;11.93;;
37529;SDS011;23374;52.758;6.872;2023-06-22T00:54:33;24.63;;;13.00;;
37529;SDS011;23374;52.758;6.872;2023-06-22T00:56:54;22.63;;;13.30;;
37529;SDS011;23374;52.758;6.872;2023-06-22T01:00:22;19.53;;;12.50;;
37529;SDS011;23374;52.758;6.872;2023-06-22T01:02:44;22.47;;;13.73;;
37529;SDS011;23374;52.758;6.872;2023-06-22T01:05:06;18.50;;;12.50;;
37529;SDS011;23374;52.758;6.872;2023-06-22T01:07:33;27.37;;;13.07;;
37529;SDS011;23374;52.758;6.872;2023-06-22T01:10:18;21.20;;;13.23;;
37529;SDS011;23374;52.758;6.872;2023-06-22T01:14:27;22.47;;;13.43;;
37529;SDS011;23374;52.758;6.872;2023-06-22T01:16:59;23.37;;;13.57;;
37529;SDS011;23374;52.758;6.872;2023-06-22T01:19:54;22.13;;;13.80;;
37529;SDS011;23374;52.758;6.872;2023-06-22T01:22:16;24.27;;;13.93;;
37529;SDS011;23374;52.758;6.872;2023-06-22T01:29:19;19.50;;;13.03;;
37529;SDS011;23374;52.758;6.872;2023-06-22T01:31:42;23.60;;;13.20;;
37529;SDS011;23374;52.758;6.872;2023-06-22T01:34:05;28.40;;;14.87;;
37529;SDS011;23374;52.758;6.872;2023-06-22T01:36:27;25.07;;;14.70;;
37529;SDS011;23374;52.758;6.872;2023-06-22T01:38:49;24.07;;;15.03;;
37529;SDS011;23374;52.758;6.872;2023-06-22T01:41:12;24.73;;;14.40;;
37529;SDS011;23374;52.758;6.872;2023-06-22T01:43:33;25.23;;;14.50;;
37529;SDS011;23374;52.758;6.872;2023-06-22T01:45:55;25.33;;;14.77;;
37529;SDS011;23374;52.758;6.872;2023-06-22T01:48:18;27.47;;;14.70;;
37529;SDS011;23374;52.758;6.872;2023-06-22T01:50:39;27.17;;;15.97;;
37529;SDS011;23374;52.758;6.872;2023-06-22T01:53:00;25.47;;;15.33;;
37529;SDS011;23374;52.758;6.872;2023-06-22T01:55:21;24.27;;;15.67;;
37529;SDS011;23374;52.758;6.872;2023-06-22T01:57:41;25.17;;;15.63;;
37529;SDS011;23374;52.758;6.872;2023-06-22T02:00:26;27.07;;;16.57;;
37529;SDS011;23374;52.758;6.872;2023-06-22T02:03:34;25.13;;;15.30;;
37529;SDS011;23374;52.758;6.872;2023-06-22T02:09:29;26.93;;;15.43;;
37529;SDS011;23374;52.758;6.872;2023-06-22T02:11:51;32.90;;;17.17;;
37529;SDS011;23374;52.758;6.872;2023-06-22T02:14:14;25.93;;;14.93;;
37529;SDS011;23374;52.758;6.872;2023-06-22T02:16:35;27.07;;;15.20;;
37529;SDS011;23374;52.758;6.872;2023-06-22T02:19:00;25.13;;;15.30;;
37529;SDS011;23374;52.758;6.872;2023-06-22T02:21:26;26.30;;;16.03;;
37529;SDS011;23374;52.758;6.872;2023-06-22T02:23:46;27.67;;;15.77;;
37529;SDS011;23374;52.758;6.872;2023-06-22T02:26:07;26.47;;;16.83;;
37529;SDS011;23374;52.758;6.872;2023-06-22T02:28:28;27.50;;;16.53;;
37529;SDS011;23374;52.758;6.872;2023-06-22T02:30:49;27.23;;;17.43;;
37529;SDS011;23374;52.758;6.872;2023-06-22T02:33:09;29.83;;;18.13;;
37529;SDS011;23374;52.758;6.872;2023-06-22T02:35:30;30.93;;;17.60;;
37529;SDS011;23374;52.758;6.872;2023-06-22T02:37:51;28.90;;;16.57;;
37529;SDS011;23374;52.758;6.872;2023-06-22T02:40:11;28.73;;;16.83;;
37529;SDS011;23374;52.758;6.872;2023-06-22T02:42:32;30.53;;;18.80;;
37529;SDS011;23374;52.758;6.872;2023-06-22T02:44:52;34.83;;;18.80;;
37529;SDS011;23374;52.758;6.872;2023-06-22T02:47:13;32.80;;;18.10;;
37529;SDS011;23374;52.758;6.872;2023-06-22T02:49:34;32.60;;;17.97;;
37529;SDS011;23374;52.758;6.872;2023-06-22T02:51:55;35.87;;;19.33;;
37529;SDS011;23374;52.758;6.872;2023-06-22T02:54:16;33.63;;;18.80;;
37529;SDS011;23374;52.758;6.872;2023-06-22T02:56:37;31.83;;;18.70;;
37529;SDS011;23374;52.758;6.872;2023-06-22T02:58:58;29.23;;;18.60;;
37529;SDS011;23374;52.758;6.872;2023-06-22T03:01:21;29.10;;;17.67;;
37529;SDS011;23374;52.758;6.872;2023-06-22T03:03:43;31.23;;;18.87;;
37529;SDS011;23374;52.758;6.872;2023-06-22T03:06:03;29.63;;;18.27;;
37529;SDS011;23374;52.758;6.872;2023-06-22T03:08:24;30.87;;;19.37;;
37529;SDS011;23374;52.758;6.872;2023-06-22T03:10:44;32.10;;;18.10;;
37529;SDS011;23374;52.758;6.872;2023-06-22T03:13:05;27.73;;;16.70;;
37529;SDS011;23374;52.758;6.872;2023-06-22T03:15:25;30.13;;;17.63;;
37529;SDS011;23374;52.758;6.872;2023-06-22T03:17:46;28.27;;;16.83;;
37529;SDS011;23374;52.758;6.872;2023-06-22T03:20:08;29.50;;;17.10;;
37529;SDS011;23374;52.758;6.872;2023-06-22T03:22:30;32.20;;;18.33;;
37529;SDS011;23374;52.758;6.872;2023-06-22T03:24:51;31.83;;;18.27;;
37529;SDS011;23374;52.758;6.872;2023-06-22T03:27:11;28.97;;;17.60;;
37529;SDS011;23374;52.758;6.872;2023-06-22T03:29:31;28.47;;;18.17;;
37529;SDS011;23374;52.758;6.872;2023-06-22T03:31:51;31.23;;;18.07;;
37529;SDS011;23374;52.758;6.872;2023-06-22T03:34:12;28.13;;;17.03;;
37529;SDS011;23374;52.758;6.872;2023-06-22T03:36:32;29.17;;;17.77;;
37529;SDS011;23374;52.758;6.872;2023-06-22T03:38:52;29.23;;;18.37;;
37529;SDS011;23374;52.758;6.872;2023-06-22T03:41:13;33.70;;;19.70;;
37529;SDS011;23374;52.758;6.872;2023-06-22T03:43:33;32.90;;;18.47;;
37529;SDS011;23374;52.758;6.872;2023-06-22T03:45:54;29.63;;;17.97;;
37529;SDS011;23374;52.758;6.872;2023-06-22T03:48:14;31.40;;;18.57;;
37529;SDS011;23374;52.758;6.872;2023-06-22T03:50:35;31.20;;;18.97;;
37529;SDS011;23374;52.758;6.872;2023-06-22T03:52:55;33.87;;;19.23;;
37529;SDS011;23374;52.758;6.872;2023-06-22T03:55:16;35.03;;;19.67;;
37529;SDS011;23374;52.758;6.872;2023-06-22T03:57:37;37.77;;;19.70;;
37529;SDS011;23374;52.758;6.872;2023-06-22T03:59:57;30.77;;;18.97;;
37529;SDS011;23374;52.758;6.872;2023-06-22T04:02:18;35.70;;;20.23;;
37529;SDS011;23374;52.758;6.872;2023-06-22T04:04:38;33.17;;;20.07;;
37529;SDS011;23374;52.758;6.872;2023-06-22T04:06:59;31.93;;;19.67;;
37529;SDS011;23374;52.758;6.872;2023-06-22T04:09:19;36.13;;;20.17;;
37529;SDS011;23374;52.758;6.872;2023-06-22T04:11:41;31.30;;;19.47;;
37529;SDS011;23374;52.758;6.872;2023-06-22T04:14:01;35.60;;;20.70;;
37529;SDS011;23374;52.758;6.872;2023-06-22T04:16:21;33.23;;;20.27;;
37529;SDS011;23374;52.758;6.872;2023-06-22T04:18:41;36.33;;;21.20;;
37529;SDS011;23374;52.758;6.872;2023-06-22T04:21:02;35.57;;;21.60;;
37529;SDS011;23374;52.758;6.872;2023-06-22T04:23:23;36.53;;;22.23;;
37529;SDS011;23374;52.758;6.872;2023-06-22T04:25:43;37.60;;;21.13;;
37529;SDS011;23374;52.758;6.872;2023-06-22T04:28:03;38.40;;;20.47;;
37529;SDS011;23374;52.758;6.872;2023-06-22T04:30:24;33.57;;;20.93;;
37529;SDS011;23374;52.758;6.872;2023-06-22T04:32:44;36.03;;;20.67;;
37529;SDS011;23374;52.758;6.872;2023-06-22T04:35:05;37.97;;;22.00;;
37529;SDS011;23374;52.758;6.872;2023-06-22T04:37:26;35.73;;;21.13;;
37529;SDS011;23374;52.758;6.872;2023-06-22T04:39:47;40.00;;;22.00;;
37529;SDS011;23374;52.758;6.872;2023-06-22T04:42:07;35.33;;;21.27;;
37529;SDS011;23374;52.758;6.872;2023-06-22T04:44:28;43.20;;;23.50;;
37529;SDS011;23374;52.758;6.872;2023-06-22T04:46:48;37.80;;;21.87;;
37529;SDS011;23374;52.758;6.872;2023-06-22T04:49:13;40.37;;;21.67;;
37529;SDS011;23374;52.758;6.872;2023-06-22T04:51:33;39.00;;;22.53;;
37529;SDS011;23374;52.758;6.872;2023-06-22T04:53:54;36.10;;;21.23;;
37529;SDS011;23374;52.758;6.872;2023-06-22T04:56:20;38.27;;;21.37;;
37529;SDS011;23374;52.758;6.872;2023-06-22T04:58:41;36.10;;;21.70;;
37529;SDS011;23374;52.758;6.872;2023-06-22T05:01:01;36.43;;;21.47;;
37529;SDS011;23374;52.758;6.872;2023-06-22T05:03:25;37.27;;;21.87;;
37529;SDS011;23374;52.758;6.872;2023-06-22T05:05:46;36.10;;;20.57;;
37529;SDS011;23374;52.758;6.872;2023-06-22T05:08:07;31.07;;;20.23;;
37529;SDS011;23374;52.758;6.872;2023-06-22T05:10:27;32.83;;;19.67;;
37529;SDS011;23374;52.758;6.872;2023-06-22T05:12:47;29.33;;;19.03;;
37529;SDS011;23374;52.758;6.872;2023-06-22T05:15:08;32.80;;;19.20;;
37529;SDS011;23374;52.758;6.872;2023-06-22T05:17:29;29.13;;;17.83;;
37529;SDS011;23374;52.758;6.872;2023-06-22T05:19:49;27.40;;;17.47;;
37529;SDS011;23374;52.758;6.872;2023-06-22T05:22:10;24.13;;;16.03;;
37529;SDS011;23374;52.758;6.872;2023-06-22T05:24:32;27.10;;;16.83;;
37529;SDS011;23374;52.758;6.872;2023-06-22T05:26:52;25.10;;;15.70;;
37529;SDS011;23374;52.758;6.872;2023-06-22T05:29:13;27.73;;;16.33;;
37529;SDS011;23374;52.758;6.872;2023-06-22T05:31:33;24.37;;;15.90;;
37529;SDS011;23374;52.758;6.872;2023-06-22T05:33:55;25.30;;;16.33;;
37529;SDS011;23374;52.758;6.872;2023-06-22T05:36:15;21.63;;;14.40;;
37529;SDS011;23374;52.758;6.872;2023-06-22T05:38:36;22.73;;;15.10;;
37529;SDS011;23374;52.758;6.872;2023-06-22T05:40:57;21.00;;;14.60;;
37529;SDS011;23374;52.758;6.872;2023-06-22T05:43:17;22.20;;;14.10;;
37529;SDS011;23374;52.758;6.872;2023-06-22T05:45:37;21.73;;;14.37;;
37529;SDS011;23374;52.758;6.872;2023-06-22T05:47:57;20.07;;;14.20;;
37529;SDS011;23374;52.758;6.872;2023-06-22T05:50:18;19.17;;;13.13;;
37529;SDS011;23374;52.758;6.872;2023-06-22T05:52:39;20.10;;;13.10;;
37529;SDS011;23374;52.758;6.872;2023-06-22T05:54:59;20.40;;;12.77;;
37529;SDS011;23374;52.758;6.872;2023-06-22T05:57:19;19.07;;;12.50;;
37529;SDS011;23374;52.758;6.872;2023-06-22T05:59:41;17.77;;;12.10;;
37529;SDS011;23374;52.758;6.872;2023-06-22T06:02:02;17.93;;;12.40;;
37529;SDS011;23374;52.758;6.872;2023-06-22T06:04:24;17.23;;;11.07;;
37529;SDS011;23374;52.758;6.872;2023-06-22T06:06:45;18.43;;;12.10;;
37529;SDS011;23374;52.758;6.872;2023-06-22T06:09:06;19.80;;;12.87;;
37529;SDS011;23374;52.758;6.872;2023-06-22T06:11:27;17.87;;;12.43;;
37529;SDS011;23374;52.758;6.872;2023-06-22T06:13:47;18.47;;;11.87;;
37529;SDS011;23374;52.758;6.872;2023-06-22T06:16:08;19.97;;;11.37;;
37529;SDS011;23374;52.758;6.872;2023-06-22T06:18:28;17.40;;;11.17;;
37529;SDS011;23374;52.758;6.872;2023-06-22T06:20:48;18.17;;;11.87;;
37529;SDS011;23374;52.758;6.872;2023-06-22T06:23:08;17.50;;;11.13;;
37529;SDS011;23374;52.758;6.872;2023-06-22T06:25:28;16.40;;;10.77;;
37529;SDS011;23374;52.758;6.872;2023-06-22T06:27:50;16.83;;;11.00;;
37529;SDS011;23374;52.758;6.872;2023-06-22T06:30:12;16.70;;;10.13;;
37529;SDS011;23374;52.758;6.872;2023-06-22T06:32:33;14.20;;;9.37;;
37529;SDS011;23374;52.758;6.872;2023-06-22T06:34:53;13.50;;;8.97;;
37529;SDS011;23374;52.758;6.872;2023-06-22T06:37:14;14.73;;;8.00;;
37529;SDS011;23374;52.758;6.872;2023-06-22T06:39:35;13.93;;;8.87;;
37529;SDS011;23374;52.758;6.872;2023-06-22T06:41:55;11.63;;;7.90;;
37529;SDS011;23374;52.758;6.872;2023-06-22T06:44:15;14.50;;;8.37;;
37529;SDS011;23374;52.758;6.872;2023-06-22T06:46:36;11.83;;;7.87;;
37529;SDS011;23374;52.758;6.872;2023-06-22T06:48:57;15.27;;;9.40;;
37529;SDS011;23374;52.758;6.872;2023-06-22T06:51:18;13.47;;;8.90;;
37529;SDS011;23374;52.758;6.872;2023-06-22T06:53:38;15.80;;;9.40;;
37529;SDS011;23374;52.758;6.872;2023-06-22T06:55:58;14.90;;;9.23;;
37529;SDS011;23374;52.758;6.872;2023-06-22T06:58:18;15.70;;;8.53;;
37529;SDS011;23374;52.758;6.872;2023-06-22T07:00:39;14.53;;;9.20;;
37529;SDS011;23374;52.758;6.872;2023-06-22T07:02:59;15.57;;;9.73;;
37529;SDS011;23374;52.758;6.872;2023-06-22T07:05:20;15.70;;;8.97;;
37529;SDS011;23374;52.758;6.872;2023-06-22T07:07:40;14.93;;;10.03;;
37529;SDS011;23374;52.758;6.872;2023-06-22T07:10:05;16.83;;;9.50;;
37529;SDS011;23374;52.758;6.872;2023-06-22T07:12:26;13.97;;;9.00;;
37529;SDS011;23374;52.758;6.872;2023-06-22T07:14:46;14.60;;;8.47;;
37529;SDS011;23374;52.758;6.872;2023-06-22T07:17:07;13.37;;;8.87;;
37529;SDS011;23374;52.758;6.872;2023-06-22T07:19:27;12.13;;;8.83;;
37529;SDS011;23374;52.758;6.872;2023-06-22T07:21:48;14.67;;;9.23;;
37529;SDS011;23374;52.758;6.872;2023-06-22T07:24:08;13.00;;;8.80;;
37529;SDS011;23374;52.758;6.872;2023-06-22T07:26:29;13.57;;;8.60;;
37529;SDS011;23374;52.758;6.872;2023-06-22T07:28:49;17.43;;;8.83;;
37529;SDS011;23374;52.758;6.872;2023-06-22T07:31:10;11.43;;;7.80;;
37529;SDS011;23374;52.758;6.872;2023-06-22T07:33:31;13.30;;;8.80;;
37529;SDS011;23374;52.758;6.872;2023-06-22T07:35:51;14.13;;;8.17;;
37529;SDS011;23374;52.758;6.872;2023-06-22T07:38:12;11.80;;;7.37;;
37529;SDS011;23374;52.758;6.872;2023-06-22T07:40:32;12.13;;;7.90;;
37529;SDS011;23374;52.758;6.872;2023-06-22T07:42:54;11.87;;;8.57;;
37529;SDS011;23374;52.758;6.872;2023-06-22T07:45:14;12.10;;;7.73;;
37529;SDS011;23374;52.758;6.872;2023-06-22T07:47:35;12.57;;;6.83;;
37529;SDS011;23374;52.758;6.872;2023-06-22T07:49:58;13.70;;;7.47;;
37529;SDS011;23374;52.758;6.872;2023-06-22T07:52:21;9.37;;;7.10;;
37529;SDS011;23374;52.758;6.872;2023-06-22T07:54:41;12.07;;;7.53;;
37529;SDS011;23374;52.758;6.872;2023-06-22T07:57:01;11.27;;;7.73;;
37529;SDS011;23374;52.758;6.872;2023-06-22T07:59:22;11.20;;;7.23;;
37529;SDS011;23374;52.758;6.872;2023-06-22T08:01:42;11.83;;;7.33;;
37529;SDS011;23374;52.758;6.872;2023-06-22T08:04:03;10.67;;;6.73;;
37529;SDS011;23374;52.758;6.872;2023-06-22T08:06:25;11.23;;;6.73;;
37529;SDS011;23374;52.758;6.872;2023-06-22T08:08:46;12.10;;;7.13;;
37529;SDS011;23374;52.758;6.872;2023-06-22T08:11:09;11.37;;;6.43;;
37529;SDS011;23374;52.758;6.872;2023-06-22T08:13:29;8.53;;;6.30;;
37529;SDS011;23374;52.758;6.872;2023-06-22T08:15:50;9.43;;;6.20;;
37529;SDS011;23374;52.758;6.872;2023-06-22T08:18:10;11.23;;;6.20;;
37529;SDS011;23374;52.758;6.872;2023-06-22T08:20:31;14.53;;;7.40;;
37529;SDS011;23374;52.758;6.872;2023-06-22T08:22:53;11.90;;;7.07;;
37529;SDS011;23374;52.758;6.872;2023-06-22T08:25:15;12.47;;;7.27;;
37529;SDS011;23374;52.758;6.872;2023-06-22T08:27:35;13.03;;;7.53;;
37529;SDS011;23374;52.758;6.872;2023-06-22T08:29:56;10.67;;;6.63;;
37529;SDS011;23374;52.758;6.872;2023-06-22T08:32:18;9.40;;;6.80;;
37529;SDS011;23374;52.758;6.872;2023-06-22T08:34:39;12.27;;;6.90;;
37529;SDS011;23374;52.758;6.872;2023-06-22T08:37:01;10.30;;;6.80;;
37529;SDS011;23374;52.758;6.872;2023-06-22T08:39:26;12.77;;;7.30;;
37529;SDS011;23374;52.758;6.872;2023-06-22T08:41:47;9.43;;;5.93;;
37529;SDS011;23374;52.758;6.872;2023-06-22T08:44:08;12.83;;;7.23;;
37529;SDS011;23374;52.758;6.872;2023-06-22T08:46:29;10.57;;;6.73;;
37529;SDS011;23374;52.758;6.872;2023-06-22T08:48:53;9.47;;;6.37;;
37529;SDS011;23374;52.758;6.872;2023-06-22T08:51:13;9.80;;;6.23;;
37529;SDS011;23374;52.758;6.872;2023-06-22T08:53:33;11.10;;;6.70;;
37529;SDS011;23374;52.758;6.872;2023-06-22T08:55:55;12.77;;;7.53;;
37529;SDS011;23374;52.758;6.872;2023-06-22T08:58:15;12.50;;;6.70;;
37529;SDS011;23374;52.758;6.872;2023-06-22T09:00:35;11.60;;;7.17;;
37529;SDS011;23374;52.758;6.872;2023-06-22T09:02:57;9.80;;;6.33;;
37529;SDS011;23374;52.758;6.872;2023-06-22T09:05:18;10.20;;;6.60;;
37529;SDS011;23374;52.758;6.872;2023-06-22T09:07:41;10.30;;;6.67;;
37529;SDS011;23374;52.758;6.872;2023-06-22T09:10:02;9.33;;;6.27;;
37529;SDS011;23374;52.758;6.872;2023-06-22T09:12:24;9.63;;;6.30;;
37529;SDS011;23374;52.758;6.872;2023-06-22T09:14:47;10.07;;;7.03;;
37529;SDS011;23374;52.758;6.872;2023-06-22T09:17:07;9.73;;;6.00;;
37529;SDS011;23374;52.758;6.872;2023-06-22T09:19:28;10.13;;;5.77;;
37529;SDS011;23374;52.758;6.872;2023-06-22T09:21:48;10.33;;;6.17;;
37529;SDS011;23374;52.758;6.872;2023-06-22T09:24:09;9.70;;;6.67;;
37529;SDS011;23374;52.758;6.872;2023-06-22T09:26:29;8.27;;;5.27;;
37529;SDS011;23374;52.758;6.872;2023-06-22T09:28:50;8.00;;;5.77;;
37529;SDS011;23374;52.758;6.872;2023-06-22T09:31:11;9.03;;;5.90;;
37529;SDS011;23374;52.758;6.872;2023-06-22T09:33:31;11.47;;;5.90;;
37529;SDS011;23374;52.758;6.872;2023-06-22T09:35:52;9.30;;;6.40;;
37529;SDS011;23374;52.758;6.872;2023-06-22T09:38:12;8.37;;;5.67;;
37529;SDS011;23374;52.758;6.872;2023-06-22T09:40:32;7.80;;;5.60;;
37529;SDS011;23374;52.758;6.872;2023-06-22T09:42:59;9.40;;;5.40;;
37529;SDS011;23374;52.758;6.872;2023-06-22T09:45:19;9.60;;;5.63;;
37529;SDS011;23374;52.758;6.872;2023-06-22T09:47:39;9.33;;;5.87;;
37529;SDS011;23374;52.758;6.872;2023-06-22T09:50:00;8.50;;;5.57;;
37529;SDS011;23374;52.758;6.872;2023-06-22T09:52:21;7.10;;;4.97;;
37529;SDS011;23374;52.758;6.872;2023-06-22T09:54:42;10.07;;;6.93;;
37529;SDS011;23374;52.758;6.872;2023-06-22T09:57:04;8.57;;;5.60;;
37529;SDS011;23374;52.758;6.872;2023-06-22T09:59:24;8.77;;;5.70;;
37529;SDS011;23374;52.758;6.872;2023-06-22T10:01:44;8.83;;;5.83;;
37529;SDS011;23374;52.758;6.872;2023-06-22T10:04:05;8.70;;;4.93;;
37529;SDS011;23374;52.758;6.872;2023-06-22T10:06:25;10.03;;;6.40;;
37529;SDS011;23374;52.758;6.872;2023-06-22T10:08:45;6.90;;;5.10;;
37529;SDS011;23374;52.758;6.872;2023-06-22T10:11:07;7.87;;;5.43;;
37529;SDS011;23374;52.758;6.872;2023-06-22T10:13:28;6.70;;;5.03;;
37529;SDS011;23374;52.758;6.872;2023-06-22T10:15:48;7.23;;;5.00;;
37529;SDS011;23374;52.758;6.872;2023-06-22T10:18:11;6.83;;;5.10;;
37529;SDS011;23374;52.758;6.872;2023-06-22T10:20:31;10.13;;;5.43;;
37529;SDS011;23374;52.758;6.872;2023-06-22T10:22:51;9.70;;;5.60;;
37529;SDS011;23374;52.758;6.872;2023-06-22T10:25:12;7.83;;;5.20;;
37529;SDS011;23374;52.758;6.872;2023-06-22T10:27:33;8.80;;;5.43;;
37529;SDS011;23374;52.758;6.872;2023-06-22T10:29:53;8.67;;;5.50;;
37529;SDS011;23374;52.758;6.872;2023-06-22T10:32:14;7.33;;;5.60;;
37529;SDS011;23374;52.758;6.872;2023-06-22T10:34:35;7.40;;;4.70;;
37529;SDS011;23374;52.758;6.872;2023-06-22T10:36:56;6.80;;;4.83;;
37529;SDS011;23374;52.758;6.872;2023-06-22T10:39:16;7.97;;;4.90;;
37529;SDS011;23374;52.758;6.872;2023-06-22T10:41:37;5.90;;;4.43;;
37529;SDS011;23374;52.758;6.872;2023-06-22T10:43:57;7.17;;;4.63;;
37529;SDS011;23374;52.758;6.872;2023-06-22T10:46:17;7.87;;;5.20;;
37529;SDS011;23374;52.758;6.872;2023-06-22T10:48:38;10.53;;;5.80;;
37529;SDS011;23374;52.758;6.872;2023-06-22T10:51:01;9.57;;;5.87;;
37529;SDS011;23374;52.758;6.872;2023-06-22T10:53:22;5.83;;;4.07;;
37529;SDS011;23374;52.758;6.872;2023-06-22T10:55:42;7.63;;;5.10;;
37529;SDS011;23374;52.758;6.872;2023-06-22T10:58:03;6.93;;;4.90;;
37529;SDS011;23374;52.758;6.872;2023-06-22T11:00:23;6.40;;;4.50;;
37529;SDS011;23374;52.758;6.872;2023-06-22T11:02:43;5.40;;;4.00;;
37529;SDS011;23374;52.758;6.872;2023-06-22T11:05:05;7.27;;;5.03;;
37529;SDS011;23374;52.758;6.872;2023-06-22T11:07:26;9.63;;;4.40;;
37529;SDS011;23374;52.758;6.872;2023-06-22T11:09:50;6.60;;;4.93;;
37529;SDS011;23374;52.758;6.872;2023-06-22T11:12:10;5.80;;;4.27;;
37529;SDS011;23374;52.758;6.872;2023-06-22T11:14:30;7.10;;;5.00;;
37529;SDS011;23374;52.758;6.872;2023-06-22T11:16:51;7.33;;;4.43;;
37529;SDS011;23374;52.758;6.872;2023-06-22T11:19:11;8.40;;;5.83;;
37529;SDS011;23374;52.758;6.872;2023-06-22T11:21:31;6.87;;;4.80;;
37529;SDS011;23374;52.758;6.872;2023-06-22T11:23:52;6.87;;;4.77;;
37529;SDS011;23374;52.758;6.872;2023-06-22T11:26:13;6.33;;;4.03;;
37529;SDS011;23374;52.758;6.872;2023-06-22T11:28:33;7.10;;;4.40;;
37529;SDS011;23374;52.758;6.872;2023-06-22T11:30:53;5.80;;;3.90;;
37529;SDS011;23374;52.758;6.872;2023-06-22T11:33:13;6.10;;;3.87;;
37529;SDS011;23374;52.758;6.872;2023-06-22T11:35:34;7.77;;;3.80;;
37529;SDS011;23374;52.758;6.872;2023-06-22T11:37:54;5.57;;;3.87;;
37529;SDS011;23374;52.758;6.872;2023-06-22T11:40:15;4.27;;;3.30;;
37529;SDS011;23374;52.758;6.872;2023-06-22T11:42:37;5.20;;;3.60;;
37529;SDS011;23374;52.758;6.872;2023-06-22T11:44:58;7.93;;;3.90;;
37529;SDS011;23374;52.758;6.872;2023-06-22T11:47:18;5.37;;;3.40;;
37529;SDS011;23374;52.758;6.872;2023-06-22T11:49:38;6.73;;;3.20;;
37529;SDS011;23374;52.758;6.872;2023-06-22T11:51:59;5.37;;;3.60;;
37529;SDS011;23374;52.758;6.872;2023-06-22T11:54:20;6.63;;;4.23;;
37529;SDS011;23374;52.758;6.872;2023-06-22T11:56:40;5.17;;;3.77;;
37529;SDS011;23374;52.758;6.872;2023-06-22T11:59:00;4.70;;;3.20;;
37529;SDS011;23374;52.758;6.872;2023-06-22T12:01:21;3.83;;;3.33;;
37529;SDS011;23374;52.758;6.872;2023-06-22T12:03:41;4.13;;;3.37;;
37529;SDS011;23374;52.758;6.872;2023-06-22T12:06:03;7.63;;;3.60;;
37529;SDS011;23374;52.758;6.872;2023-06-22T12:08:24;4.23;;;3.30;;
37529;SDS011;23374;52.758;6.872;2023-06-22T12:10:44;6.93;;;2.97;;
37529;SDS011;23374;52.758;6.872;2023-06-22T12:13:04;5.03;;;3.50;;
37529;SDS011;23374;52.758;6.872;2023-06-22T12:15:25;5.07;;;3.50;;
37529;SDS011;23374;52.758;6.872;2023-06-22T12:17:46;5.13;;;3.53;;
37529;SDS011;23374;52.758;6.872;2023-06-22T12:20:08;4.53;;;3.20;;
37529;SDS011;23374;52.758;6.872;2023-06-22T12:22:29;4.57;;;3.57;;
37529;SDS011;23374;52.758;6.872;2023-06-22T12:24:50;4.77;;;3.20;;
37529;SDS011;23374;52.758;6.872;2023-06-22T12:27:10;6.07;;;3.30;;
37529;SDS011;23374;52.758;6.872;2023-06-22T12:29:31;9.17;;;3.80;;
37529;SDS011;23374;52.758;6.872;2023-06-22T12:31:51;6.20;;;3.70;;
37529;SDS011;23374;52.758;6.872;2023-06-22T12:34:11;8.47;;;3.80;;
37529;SDS011;23374;52.758;6.872;2023-06-22T12:36:32;4.23;;;3.30;;
37529;SDS011;23374;52.758;6.872;2023-06-22T12:38:52;4.23;;;3.23;;
37529;SDS011;23374;52.758;6.872;2023-06-22T12:41:12;5.27;;;2.97;;
37529;SDS011;23374;52.758;6.872;2023-06-22T12:43:32;3.83;;;3.27;;
37529;SDS011;23374;52.758;6.872;2023-06-22T12:45:53;5.07;;;3.43;;
37529;SDS011;23374;52.758;6.872;2023-06-22T12:48:13;4.17;;;3.67;;
37529;SDS011;23374;52.758;6.872;2023-06-22T12:50:34;6.27;;;3.23;;
37529;SDS011;23374;52.758;6.872;2023-06-22T12:52:54;4.23;;;3.40;;
37529;SDS011;23374;52.758;6.872;2023-06-22T12:55:15;4.57;;;3.40;;
37529;SDS011;23374;52.758;6.872;2023-06-22T12:57:35;5.30;;;3.73;;
37529;SDS011;23374;52.758;6.872;2023-06-22T12:59:56;4.33;;;2.87;;
37529;SDS011;23374;52.758;6.872;2023-06-22T13:02:18;3.93;;;2.67;;
37529;SDS011;23374;52.758;6.872;2023-06-22T13:04:38;11.50;;;3.97;;
37529;SDS011;23374;52.758;6.872;2023-06-22T13:06:59;5.10;;;3.50;;
37529;SDS011;23374;52.758;6.872;2023-06-22T13:09:19;4.40;;;3.20;;
37529;SDS011;23374;52.758;6.872;2023-06-22T13:11:39;3.87;;;3.27;;
37529;SDS011;23374;52.758;6.872;2023-06-22T13:14:00;5.30;;;3.07;;
37529;SDS011;23374;52.758;6.872;2023-06-22T13:16:20;5.27;;;3.60;;
37529;SDS011;23374;52.758;6.872;2023-06-22T13:18:41;8.47;;;3.60;;
37529;SDS011;23374;52.758;6.872;2023-06-22T13:21:02;5.70;;;3.30;;
37529;SDS011;23374;52.758;6.872;2023-06-22T13:23:23;6.13;;;3.30;;
37529;SDS011;23374;52.758;6.872;2023-06-22T13:25:44;5.83;;;3.27;;
37529;SDS011;23374;52.758;6.872;2023-06-22T13:28:04;5.67;;;3.50;;
37529;SDS011;23374;52.758;6.872;2023-06-22T13:30:24;4.77;;;3.20;;
37529;SDS011;23374;52.758;6.872;2023-06-22T13:32:44;3.30;;;2.50;;
37529;SDS011;23374;52.758;6.872;2023-06-22T13:35:07;3.27;;;2.80;;
37529;SDS011;23374;52.758;6.872;2023-06-22T13:37:31;4.93;;;2.90;;
37529;SDS011;23374;52.758;6.872;2023-06-22T13:39:51;4.33;;;2.87;;
37529;SDS011;23374;52.758;6.872;2023-06-22T13:42:11;4.67;;;3.00;;
37529;SDS011;23374;52.758;6.872;2023-06-22T13:44:32;6.03;;;3.20;;
37529;SDS011;23374;52.758;6.872;2023-06-22T13:46:53;5.70;;;3.50;;
37529;SDS011;23374;52.758;6.872;2023-06-22T13:49:13;4.17;;;3.23;;
37529;SDS011;23374;52.758;6.872;2023-06-22T13:51:35;6.43;;;3.27;;
37529;SDS011;23374;52.758;6.872;2023-06-22T13:53:56;5.10;;;3.00;;
37529;SDS011;23374;52.758;6.872;2023-06-22T13:56:16;5.03;;;2.90;;
37529;SDS011;23374;52.758;6.872;2023-06-22T13:58:37;4.77;;;3.27;;
37529;SDS011;23374;52.758;6.872;2023-06-22T14:00:57;4.70;;;3.23;;
37529;SDS011;23374;52.758;6.872;2023-06-22T14:03:18;5.73;;;3.10;;
37529;SDS011;23374;52.758;6.872;2023-06-22T14:05:38;4.30;;;3.03;;
37529;SDS011;23374;52.758;6.872;2023-06-22T14:07:58;4.10;;;3.13;;